sensor_id;sensor_type;location;lat;lon;timestamp;pressure;altitude;pressure_sealevel;temperature;humidity
74544;BME280;63016;55.030;38.710;2023-09-19T00:01:14;100543.50;;;10.82;59.76
74544;BME280;63016;55.030;38.710;2023-09-19T00:03:40;100537.47;;;10.82;59.86
74544;BME280;63016;55.030;38.710;2023-09-19T00:06:07;100542.84;;;10.80;59.78
74544;BME280;63016;55.030;38.710;2023-09-19T00:08:36;100541.06;;;10.81;60.01
74544;BME280;63016;55.030;38.710;2023-09-19T00:11:01;100555.06;;;10.80;60.31
74544;BME280;63016;55.030;38.710;2023-09-19T00:13:33;100535.75;;;10.73;60.39
74544;BME280;63016;55.030;38.710;2023-09-19T00:16:01;100546.06;;;10.74;60.16
74544;BME280;63016;55.030;38.710;2023-09-19T00:18:33;100542.94;;;10.71;60.05
74544;BME280;63016;55.030;38.710;2023-09-19T00:21:00;100539.66;;;10.69;60.41
74544;BME280;63016;55.030;38.710;2023-09-19T00:23:26;100548.16;;;10.71;60.07
74544;BME280;63016;55.030;38.710;2023-09-19T00:25:52;100543.09;;;10.69;60.35
74544;BME280;63016;55.030;38.710;2023-09-19T00:28:18;100550.75;;;10.71;60.31
74544;BME280;63016;55.030;38.710;2023-09-19T00:30:44;100538.69;;;10.70;60.13
74544;BME280;63016;55.030;38.710;2023-09-19T00:33:10;100545.69;;;10.69;60.65
74544;BME280;63016;55.030;38.710;2023-09-19T00:35:53;100540.47;;;10.69;60.76
74544;BME280;63016;55.030;38.710;2023-09-19T00:38:19;100541.28;;;10.70;60.57
74544;BME280;63016;55.030;38.710;2023-09-19T00:40:48;100534.72;;;10.66;60.46
74544;BME280;63016;55.030;38.710;2023-09-19T00:43:14;100541.28;;;10.70;60.96
74544;BME280;63016;55.030;38.710;2023-09-19T00:45:43;100544.88;;;10.69;60.57
74544;BME280;63016;55.030;38.710;2023-09-19T00:48:09;100525.84;;;10.59;60.46
74544;BME280;63016;55.030;38.710;2023-09-19T00:50:36;100543.91;;;10.70;60.91
74544;BME280;63016;55.030;38.710;2023-09-19T00:53:02;100540.59;;;10.68;61.15
74544;BME280;63016;55.030;38.710;2023-09-19T00:55:36;100546.50;;;10.70;60.75
74544;BME280;63016;55.030;38.710;2023-09-19T00:58:03;100542.94;;;10.71;60.91
74544;BME280;63016;55.030;38.710;2023-09-19T01:00:32;100537.06;;;10.69;60.96
74544;BME280;63016;55.030;38.710;2023-09-19T01:03:00;100543.09;;;10.69;61.14
74544;BME280;63016;55.030;38.710;2023-09-19T01:05:28;100549.78;;;10.72;60.78
74544;BME280;63016;55.030;38.710;2023-09-19T01:07:55;100545.38;;;10.72;61.04
74544;BME280;63016;55.030;38.710;2023-09-19T01:10:21;100542.09;;;10.70;61.10
74544;BME280;63016;55.030;38.710;2023-09-19T01:18:40;100546.88;;;10.75;60.92
74544;BME280;63016;55.030;38.710;2023-09-19T01:29:47;100554.19;;;10.89;61.73
74544;BME280;63016;55.030;38.710;2023-09-19T01:32:19;100552.22;;;10.91;62.10
74544;BME280;63016;55.030;38.710;2023-09-19T01:37:13;100546.03;;;10.92;62.17
74544;BME280;63016;55.030;38.710;2023-09-19T01:39:40;100545.72;;;10.95;62.00
74544;BME280;63016;55.030;38.710;2023-09-19T01:49:59;100552.66;;;11.04;62.18
74544;BME280;63016;55.030;38.710;2023-09-19T01:52:30;100550.69;;;11.06;62.10
74544;BME280;63016;55.030;38.710;2023-09-19T01:55:06;100548.78;;;11.09;62.46
74544;BME280;63016;55.030;38.710;2023-09-19T01:57:44;100548.16;;;11.15;62.82
74544;BME280;63016;55.030;38.710;2023-09-19T02:00:12;100542.94;;;11.15;62.50
74544;BME280;63016;55.030;38.710;2023-09-19T02:02:41;100550.31;;;11.19;62.47
74544;BME280;63016;55.030;38.710;2023-09-19T02:05:09;100545.59;;;11.23;62.32
74544;BME280;63016;55.030;38.710;2023-09-19T02:07:35;100545.44;;;11.24;62.54
74544;BME280;63016;55.030;38.710;2023-09-19T02:10:04;100548.56;;;11.28;62.63
74544;BME280;63016;55.030;38.710;2023-09-19T02:12:31;100544.81;;;11.30;62.42
74544;BME280;63016;55.030;38.710;2023-09-19T02:14:58;100537.78;;;11.31;62.62
74544;BME280;63016;55.030;38.710;2023-09-19T02:17:24;100535.69;;;11.35;63.00
74544;BME280;63016;55.030;38.710;2023-09-19T02:19:54;100534.59;;;11.37;62.76
74544;BME280;63016;55.030;38.710;2023-09-19T02:22:21;100529.19;;;11.39;62.53
74544;BME280;63016;55.030;38.710;2023-09-19T02:24:46;100529.66;;;11.34;62.65
74544;BME280;63016;55.030;38.710;2023-09-19T02:27:13;100535.59;;;11.44;62.46
74544;BME280;63016;55.030;38.710;2023-09-19T02:29:41;100529.38;;;11.45;62.83
74544;BME280;63016;55.030;38.710;2023-09-19T02:32:07;100517.63;;;11.41;62.65
74544;BME280;63016;55.030;38.710;2023-09-19T02:34:34;100522.53;;;11.44;62.51
74544;BME280;63016;55.030;38.710;2023-09-19T02:37:03;100532.69;;;11.47;62.81
74544;BME280;63016;55.030;38.710;2023-09-19T02:39:30;100526.47;;;11.48;62.83
74544;BME280;63016;55.030;38.710;2023-09-19T02:41:56;100523.22;;;11.46;62.40
74544;BME280;63016;55.030;38.710;2023-09-19T02:44:21;100535.94;;;11.49;62.59
74544;BME280;63016;55.030;38.710;2023-09-19T02:46:49;100531.06;;;11.46;62.89
74544;BME280;63016;55.030;38.710;2023-09-19T02:49:14;100531.69;;;11.48;62.68
74544;BME280;63016;55.030;38.710;2023-09-19T02:51:40;100528.09;;;11.49;63.13
74544;BME280;63016;55.030;38.710;2023-09-19T02:54:06;100544.47;;;11.51;63.25
74544;BME280;63016;55.030;38.710;2023-09-19T02:56:31;100526.00;;;11.53;62.85
74544;BME280;63016;55.030;38.710;2023-09-19T02:58:58;100536.81;;;11.58;63.09
74544;BME280;63016;55.030;38.710;2023-09-19T03:01:25;100540.25;;;11.58;62.88
74544;BME280;63016;55.030;38.710;2023-09-19T03:03:52;100532.56;;;11.57;62.83
74544;BME280;63016;55.030;38.710;2023-09-19T03:06:18;100552.53;;;11.66;63.23
74544;BME280;63016;55.030;38.710;2023-09-19T03:08:45;100545.34;;;11.68;62.77
74544;BME280;63016;55.030;38.710;2023-09-19T03:11:12;100548.66;;;11.70;62.93
74544;BME280;63016;55.030;38.710;2023-09-19T03:13:40;100544.22;;;11.71;63.05
74544;BME280;63016;55.030;38.710;2023-09-19T03:16:07;100520.16;;;11.59;62.81
74544;BME280;63016;55.030;38.710;2023-09-19T03:18:35;100549.13;;;11.74;63.26
74544;BME280;63016;55.030;38.710;2023-09-19T03:21:01;100523.63;;;11.68;63.31
74544;BME280;63016;55.030;38.710;2023-09-19T03:23:27;100534.78;;;11.78;63.32
74544;BME280;63016;55.030;38.710;2023-09-19T03:25:56;100532.84;;;11.80;63.05
74544;BME280;63016;55.030;38.710;2023-09-19T03:28:22;100532.31;;;11.76;63.30
74544;BME280;63016;55.030;38.710;2023-09-19T03:31:17;100526.81;;;11.88;62.46
74544;BME280;63016;55.030;38.710;2023-09-19T03:33:43;100540.25;;;11.85;63.10
74544;BME280;63016;55.030;38.710;2023-09-19T03:36:08;100536.78;;;11.84;63.09
74544;BME280;63016;55.030;38.710;2023-09-19T03:38:34;100530.72;;;11.83;62.81
74544;BME280;63016;55.030;38.710;2023-09-19T03:41:01;100526.13;;;11.77;62.88
74544;BME280;63016;55.030;38.710;2023-09-19T03:43:26;100502.88;;;11.66;63.02
74544;BME280;63016;55.030;38.710;2023-09-19T03:45:55;100525.13;;;11.78;63.01
74544;BME280;63016;55.030;38.710;2023-09-19T03:48:20;100520.22;;;11.75;63.53
74544;BME280;63016;55.030;38.710;2023-09-19T03:50:47;100520.38;;;11.74;62.85
74544;BME280;63016;55.030;38.710;2023-09-19T03:53:13;100507.94;;;11.68;62.90
74544;BME280;63016;55.030;38.710;2023-09-19T03:55:38;100509.91;;;11.74;63.34
74544;BME280;63016;55.030;38.710;2023-09-19T03:58:05;100495.03;;;11.66;63.15
74544;BME280;63016;55.030;38.710;2023-09-19T04:00:31;100516.81;;;11.75;63.26
74544;BME280;63016;55.030;38.710;2023-09-19T04:02:57;100512.69;;;11.72;63.28
74544;BME280;63016;55.030;38.710;2023-09-19T04:05:23;100513.81;;;11.70;63.15
74544;BME280;63016;55.030;38.710;2023-09-19T04:07:49;100516.41;;;11.62;63.67
74544;BME280;63016;55.030;38.710;2023-09-19T04:10:15;100510.38;;;11.61;63.46
74544;BME280;63016;55.030;38.710;2023-09-19T04:12:50;100516.44;;;11.70;63.89
74544;BME280;63016;55.030;38.710;2023-09-19T04:15:16;100517.06;;;11.64;63.70
74544;BME280;63016;55.030;38.710;2023-09-19T04:17:41;100526.06;;;11.69;63.71
74544;BME280;63016;55.030;38.710;2023-09-19T04:20:07;100525.28;;;11.77;63.85
74544;BME280;63016;55.030;38.710;2023-09-19T04:22:33;100514.22;;;11.83;64.11
74544;BME280;63016;55.030;38.710;2023-09-19T04:24:59;100518.16;;;11.87;63.97
74544;BME280;63016;55.030;38.710;2023-09-19T04:27:24;100520.13;;;11.93;64.15
74544;BME280;63016;55.030;38.710;2023-09-19T04:29:50;100525.41;;;12.01;64.29
74544;BME280;63016;55.030;38.710;2023-09-19T04:32:18;100519.53;;;12.07;64.48
74544;BME280;63016;55.030;38.710;2023-09-19T04:34:43;100522.00;;;12.09;64.01
74544;BME280;63016;55.030;38.710;2023-09-19T04:37:09;100523.16;;;12.15;63.78
74544;BME280;63016;55.030;38.710;2023-09-19T04:39:34;100529.25;;;12.23;64.04
74544;BME280;63016;55.030;38.710;2023-09-19T04:42:00;100528.91;;;12.26;64.20
74544;BME280;63016;55.030;38.710;2023-09-19T04:44:25;100518.75;;;12.31;64.03
74544;BME280;63016;55.030;38.710;2023-09-19T04:46:50;100524.50;;;12.35;64.07
74544;BME280;63016;55.030;38.710;2023-09-19T04:49:16;100512.53;;;12.32;63.87
74544;BME280;63016;55.030;38.710;2023-09-19T04:51:42;100518.59;;;12.41;63.97
74544;BME280;63016;55.030;38.710;2023-09-19T04:54:08;100518.31;;;12.44;64.03
74544;BME280;63016;55.030;38.710;2023-09-19T04:56:34;100503.56;;;12.35;63.76
74544;BME280;63016;55.030;38.710;2023-09-19T04:58:59;100520.56;;;12.47;63.88
74544;BME280;63016;55.030;38.710;2023-09-19T05:01:25;100522.22;;;12.48;64.10
74544;BME280;63016;55.030;38.710;2023-09-19T05:03:51;100520.44;;;12.49;63.64
74544;BME280;63016;55.030;38.710;2023-09-19T05:06:20;100513.38;;;12.49;64.19
74544;BME280;63016;55.030;38.710;2023-09-19T05:08:46;100509.78;;;12.50;64.33
74544;BME280;63016;55.030;38.710;2023-09-19T05:11:17;100516.97;;;12.56;64.36
74544;BME280;63016;55.030;38.710;2023-09-19T05:13:42;100525.34;;;12.60;64.49
74544;BME280;63016;55.030;38.710;2023-09-19T05:16:08;100521.41;;;12.64;64.30
74544;BME280;63016;55.030;38.710;2023-09-19T05:18:35;100510.94;;;12.64;64.14
74544;BME280;63016;55.030;38.710;2023-09-19T05:21:04;100513.06;;;12.69;64.38
74544;BME280;63016;55.030;38.710;2023-09-19T05:23:29;100520.25;;;12.75;64.57
74544;BME280;63016;55.030;38.710;2023-09-19T05:25:56;100522.88;;;12.75;64.42
74544;BME280;63016;55.030;38.710;2023-09-19T05:28:25;100521.75;;;12.77;64.73
74544;BME280;63016;55.030;38.710;2023-09-19T05:30:52;100521.25;;;12.82;64.59
74544;BME280;63016;55.030;38.710;2023-09-19T05:33:18;100524.34;;;12.85;64.40
74544;BME280;63016;55.030;38.710;2023-09-19T05:35:44;100519.78;;;12.88;64.53
74544;BME280;63016;55.030;38.710;2023-09-19T05:38:12;100513.56;;;12.89;64.57
74544;BME280;63016;55.030;38.710;2023-09-19T05:40:39;100513.38;;;12.90;64.62
74544;BME280;63016;55.030;38.710;2023-09-19T05:43:08;100520.09;;;12.93;64.63
74544;BME280;63016;55.030;38.710;2023-09-19T05:45:34;100514.50;;;12.96;64.73
74544;BME280;63016;55.030;38.710;2023-09-19T05:48:08;100515.19;;;12.98;65.00
74544;BME280;63016;55.030;38.710;2023-09-19T05:50:34;100515.50;;;13.03;65.31
74544;BME280;63016;55.030;38.710;2023-09-19T05:52:59;100522.53;;;13.10;65.12
74544;BME280;63016;55.030;38.710;2023-09-19T05:55:25;100514.50;;;13.12;64.97
74544;BME280;63016;55.030;38.710;2023-09-19T05:57:51;100521.22;;;13.23;64.93
74544;BME280;63016;55.030;38.710;2023-09-19T06:00:19;100514.50;;;13.28;64.89
74544;BME280;63016;55.030;38.710;2023-09-19T06:02:51;100509.44;;;13.27;65.02
74544;BME280;63016;55.030;38.710;2023-09-19T06:05:18;100506.28;;;13.40;65.03
74544;BME280;63016;55.030;38.710;2023-09-19T06:07:43;100515.28;;;13.45;64.99
74544;BME280;63016;55.030;38.710;2023-09-19T06:10:09;100509.53;;;13.50;64.76
74544;BME280;63016;55.030;38.710;2023-09-19T06:12:44;100505.09;;;13.50;65.50
74544;BME280;63016;55.030;38.710;2023-09-19T06:15:11;100502.13;;;13.53;65.01
74544;BME280;63016;55.030;38.710;2023-09-19T06:17:49;100501.47;;;13.59;64.93
74544;BME280;63016;55.030;38.710;2023-09-19T06:20:15;100505.53;;;13.62;65.02
74544;BME280;63016;55.030;38.710;2023-09-19T06:22:43;100496.16;;;13.68;64.95
74544;BME280;63016;55.030;38.710;2023-09-19T06:25:10;100503.69;;;13.71;65.08
74544;BME280;63016;55.030;38.710;2023-09-19T06:27:44;100499.28;;;13.71;65.12
74544;BME280;63016;55.030;38.710;2023-09-19T06:30:10;100494.00;;;13.79;65.03
74544;BME280;63016;55.030;38.710;2023-09-19T06:32:40;100482.69;;;13.79;65.07
74544;BME280;63016;55.030;38.710;2023-09-19T06:35:13;100495.41;;;13.90;65.19
74544;BME280;63016;55.030;38.710;2023-09-19T06:37:40;100488.34;;;13.91;64.94
74544;BME280;63016;55.030;38.710;2023-09-19T06:40:10;100483.41;;;13.96;65.14
74544;BME280;63016;55.030;38.710;2023-09-19T06:42:47;100487.13;;;14.01;65.45
74544;BME280;63016;55.030;38.710;2023-09-19T06:45:15;100491.06;;;14.05;65.16
74544;BME280;63016;55.030;38.710;2023-09-19T06:47:51;100488.91;;;14.09;65.21
74544;BME280;63016;55.030;38.710;2023-09-19T06:50:21;100493.81;;;14.12;65.46
74544;BME280;63016;55.030;38.710;2023-09-19T06:52:51;100478.59;;;14.07;65.35
74544;BME280;63016;55.030;38.710;2023-09-19T06:55:19;100502.63;;;14.19;65.34
74544;BME280;63016;55.030;38.710;2023-09-19T06:57:48;100493.75;;;14.20;65.43
74544;BME280;63016;55.030;38.710;2023-09-19T07:00:15;100499.28;;;14.25;65.21
74544;BME280;63016;55.030;38.710;2023-09-19T07:02:42;100492.88;;;14.28;65.23
74544;BME280;63016;55.030;38.710;2023-09-19T07:05:08;100492.69;;;14.29;65.26
74544;BME280;63016;55.030;38.710;2023-09-19T07:07:33;100480.56;;;14.28;65.07
74544;BME280;63016;55.030;38.710;2023-09-19T07:10:05;100481.69;;;14.34;65.67
74544;BME280;63016;55.030;38.710;2023-09-19T07:12:31;100490.50;;;14.41;65.67
74544;BME280;63016;55.030;38.710;2023-09-19T07:14:58;100488.00;;;14.48;65.34
74544;BME280;63016;55.030;38.710;2023-09-19T07:17:23;100492.72;;;14.52;65.57
74544;BME280;63016;55.030;38.710;2023-09-19T07:19:52;100487.94;;;14.56;65.33
74544;BME280;63016;55.030;38.710;2023-09-19T07:22:18;100488.78;;;14.56;65.45
74544;BME280;63016;55.030;38.710;2023-09-19T07:24:43;100491.16;;;14.66;65.37
74544;BME280;63016;55.030;38.710;2023-09-19T07:27:09;100469.66;;;14.62;65.80
74544;BME280;63016;55.030;38.710;2023-09-19T07:29:34;100472.38;;;14.69;65.50
74544;BME280;63016;55.030;38.710;2023-09-19T07:32:00;100475.41;;;14.81;65.75
74544;BME280;63016;55.030;38.710;2023-09-19T07:34:25;100480.13;;;14.85;65.80
74544;BME280;63016;55.030;38.710;2023-09-19T07:36:51;100473.88;;;14.86;65.80
74544;BME280;63016;55.030;38.710;2023-09-19T07:39:16;100478.69;;;14.98;65.80
74544;BME280;63016;55.030;38.710;2023-09-19T07:41:42;100462.50;;;14.94;65.85
74544;BME280;63016;55.030;38.710;2023-09-19T07:44:08;100472.16;;;15.08;66.04
74544;BME280;63016;55.030;38.710;2023-09-19T07:46:36;100460.84;;;15.08;65.92
74544;BME280;63016;55.030;38.710;2023-09-19T07:49:02;100465.13;;;15.24;66.08
74544;BME280;63016;55.030;38.710;2023-09-19T07:51:27;100465.56;;;15.27;65.84
74544;BME280;63016;55.030;38.710;2023-09-19T07:53:53;100472.00;;;15.39;66.26
74544;BME280;63016;55.030;38.710;2023-09-19T07:56:20;100477.59;;;15.51;66.13
74544;BME280;63016;55.030;38.710;2023-09-19T07:58:46;100468.81;;;15.59;66.30
74544;BME280;63016;55.030;38.710;2023-09-19T08:01:19;100461.81;;;15.66;66.08
74544;BME280;63016;55.030;38.710;2023-09-19T08:03:45;100451.13;;;15.67;66.08
74544;BME280;63016;55.030;38.710;2023-09-19T08:06:13;100444.94;;;15.75;65.87
74544;BME280;63016;55.030;38.710;2023-09-19T08:08:39;100462.31;;;15.91;65.94
74544;BME280;63016;55.030;38.710;2023-09-19T08:11:08;100454.69;;;15.96;66.13
74544;BME280;63016;55.030;38.710;2023-09-19T08:13:38;100453.38;;;16.07;65.95
74544;BME280;63016;55.030;38.710;2023-09-19T08:16:12;100441.84;;;16.08;65.49
74544;BME280;63016;55.030;38.710;2023-09-19T08:18:40;100452.41;;;16.14;65.88
74544;BME280;63016;55.030;38.710;2023-09-19T08:21:07;100463.06;;;16.28;65.83
74544;BME280;63016;55.030;38.710;2023-09-19T08:23:36;100460.31;;;16.36;65.59
74544;BME280;63016;55.030;38.710;2023-09-19T08:26:03;100453.47;;;16.41;65.76
74544;BME280;63016;55.030;38.710;2023-09-19T08:28:36;100444.00;;;16.47;65.92
74544;BME280;63016;55.030;38.710;2023-09-19T08:31:03;100451.38;;;16.58;65.86
74544;BME280;63016;55.030;38.710;2023-09-19T08:33:33;100456.13;;;16.69;66.01
74544;BME280;63016;55.030;38.710;2023-09-19T08:35:59;100458.63;;;16.78;65.59
74544;BME280;63016;55.030;38.710;2023-09-19T08:38:25;100458.91;;;16.83;65.97
74544;BME280;63016;55.030;38.710;2023-09-19T08:40:58;100470.72;;;16.93;65.80
74544;BME280;63016;55.030;38.710;2023-09-19T08:43:27;100459.03;;;17.03;65.67
74544;BME280;63016;55.030;38.710;2023-09-19T08:45:58;100461.50;;;17.11;66.09
74544;BME280;63016;55.030;38.710;2023-09-19T08:48:30;100452.84;;;17.17;65.94
74544;BME280;63016;55.030;38.710;2023-09-19T08:53:38;100454.69;;;17.30;65.27
74544;BME280;63016;55.030;38.710;2023-09-19T08:56:10;100453.94;;;17.36;65.44
74544;BME280;63016;55.030;38.710;2023-09-19T08:58:48;100444.38;;;17.35;65.57
74544;BME280;63016;55.030;38.710;2023-09-19T09:01:15;100460.28;;;17.48;65.50
74544;BME280;63016;55.030;38.710;2023-09-19T09:03:46;100445.28;;;17.55;65.49
74544;BME280;63016;55.030;38.710;2023-09-19T09:06:14;100436.56;;;17.61;65.45
74544;BME280;63016;55.030;38.710;2023-09-19T09:08:41;100436.78;;;17.66;65.35
74544;BME280;63016;55.030;38.710;2023-09-19T09:11:08;100430.53;;;17.74;65.11
74544;BME280;63016;55.030;38.710;2023-09-19T09:13:36;100431.59;;;17.80;65.17
74544;BME280;63016;55.030;38.710;2023-09-19T09:16:04;100413.50;;;17.77;65.00
74544;BME280;63016;55.030;38.710;2023-09-19T09:18:33;100425.94;;;17.89;65.00
74544;BME280;63016;55.030;38.710;2023-09-19T09:20:59;100434.88;;;17.95;64.92
74544;BME280;63016;55.030;38.710;2023-09-19T09:23:26;100426.53;;;17.98;64.83
74544;BME280;63016;55.030;38.710;2023-09-19T09:25:58;100415.56;;;18.01;65.07
74544;BME280;63016;55.030;38.710;2023-09-19T09:28:31;100420.69;;;18.09;64.71
74544;BME280;63016;55.030;38.710;2023-09-19T09:30:59;100409.72;;;18.19;64.74
74544;BME280;63016;55.030;38.710;2023-09-19T09:33:25;100416.22;;;18.23;64.73
74544;BME280;63016;55.030;38.710;2023-09-19T09:35:52;100417.84;;;18.31;64.82
74544;BME280;63016;55.030;38.710;2023-09-19T09:38:19;100403.19;;;18.35;64.48
74544;BME280;63016;55.030;38.710;2023-09-19T09:40:47;100414.97;;;18.45;64.86
74544;BME280;63016;55.030;38.710;2023-09-19T09:43:26;100407.47;;;18.49;64.73
74544;BME280;63016;55.030;38.710;2023-09-19T09:46:25;100410.69;;;18.64;64.86
74544;BME280;63016;55.030;38.710;2023-09-19T09:48:57;100403.38;;;18.66;64.26
74544;BME280;63016;55.030;38.710;2023-09-19T09:52:06;100389.34;;;18.66;64.64
74544;BME280;63016;55.030;38.710;2023-09-19T09:55:02;100402.56;;;18.86;64.62
74544;BME280;63016;55.030;38.710;2023-09-19T09:57:33;100377.38;;;18.77;64.47
74544;BME280;63016;55.030;38.710;2023-09-19T10:00:00;100402.50;;;18.99;64.51
74544;BME280;63016;55.030;38.710;2023-09-19T10:02:39;100397.00;;;19.07;64.75
74544;BME280;63016;55.030;38.710;2023-09-19T10:05:20;100398.81;;;19.13;64.36
74544;BME280;63016;55.030;38.710;2023-09-19T10:07:52;100392.47;;;19.21;64.41
74544;BME280;63016;55.030;38.710;2023-09-19T10:10:40;100375.59;;;19.22;64.66
74544;BME280;63016;55.030;38.710;2023-09-19T10:13:07;100353.59;;;19.21;64.73
74544;BME280;63016;55.030;38.710;2023-09-19T10:15:50;100376.91;;;19.44;64.43
74544;BME280;63016;55.030;38.710;2023-09-19T10:18:27;100367.13;;;19.45;64.19
74544;BME280;63016;55.030;38.710;2023-09-19T10:21:02;100381.50;;;19.62;64.30
74544;BME280;63016;55.030;38.710;2023-09-19T10:23:34;100375.38;;;19.68;63.68
74544;BME280;63016;55.030;38.710;2023-09-19T10:26:04;100372.69;;;19.75;63.92
74544;BME280;63016;55.030;38.710;2023-09-19T10:28:37;100355.00;;;19.69;63.69
74544;BME280;63016;55.030;38.710;2023-09-19T10:31:10;100360.38;;;19.87;64.11
74544;BME280;63016;55.030;38.710;2023-09-19T10:33:41;100360.31;;;19.94;63.97
74544;BME280;63016;55.030;38.710;2023-09-19T10:36:11;100356.81;;;20.00;63.88
74544;BME280;63016;55.030;38.710;2023-09-19T10:38:45;100360.00;;;20.09;63.62
74544;BME280;63016;55.030;38.710;2023-09-19T10:41:14;100354.06;;;20.13;63.77
74544;BME280;63016;55.030;38.710;2023-09-19T10:43:43;100360.09;;;20.20;63.68
74544;BME280;63016;55.030;38.710;2023-09-19T10:46:12;100345.19;;;20.26;63.13
74544;BME280;63016;55.030;38.710;2023-09-19T10:48:44;100354.91;;;20.32;63.44
74544;BME280;63016;55.030;38.710;2023-09-19T10:56:19;100339.06;;;20.50;63.36
74544;BME280;63016;55.030;38.710;2023-09-19T10:58:55;100340.75;;;20.63;62.92
74544;BME280;63016;55.030;38.710;2023-09-19T11:01:46;100307.03;;;20.52;63.00
74544;BME280;63016;55.030;38.710;2023-09-19T11:04:33;100336.34;;;20.75;62.75
74544;BME280;63016;55.030;38.710;2023-09-19T11:07:10;100340.53;;;20.83;63.23
74544;BME280;63016;55.030;38.710;2023-09-19T11:09:50;100331.47;;;20.91;62.92
74544;BME280;63016;55.030;38.710;2023-09-19T11:15:00;100325.88;;;20.99;62.72
74544;BME280;63016;55.030;38.710;2023-09-19T11:25:45;100324.81;;;21.18;63.19
74544;BME280;63016;55.030;38.710;2023-09-19T11:28:30;100319.97;;;21.27;62.88
74544;BME280;63016;55.030;38.710;2023-09-19T11:42:47;100309.72;;;21.61;62.59
74544;BME280;63016;55.030;38.710;2023-09-19T11:48:24;100293.22;;;21.70;62.54
74544;BME280;63016;55.030;38.710;2023-09-19T11:50:59;100302.84;;;21.83;62.34
74544;BME280;63016;55.030;38.710;2023-09-19T11:53:33;100302.03;;;21.94;62.06
74544;BME280;63016;55.030;38.710;2023-09-19T11:56:06;100284.13;;;21.90;61.83
74544;BME280;63016;55.030;38.710;2023-09-19T11:58:37;100299.63;;;22.04;61.89
74544;BME280;63016;55.030;38.710;2023-09-19T12:01:05;100300.56;;;22.10;62.02
74544;BME280;63016;55.030;38.710;2023-09-19T12:03:46;100299.66;;;22.16;61.86
74544;BME280;63016;55.030;38.710;2023-09-19T12:06:21;100298.16;;;22.20;61.73
74544;BME280;63016;55.030;38.710;2023-09-19T12:08:50;100300.44;;;22.28;62.08
74544;BME280;63016;55.030;38.710;2023-09-19T12:11:21;100281.28;;;22.26;62.06
74544;BME280;63016;55.030;38.710;2023-09-19T12:13:50;100285.88;;;22.43;61.92
74544;BME280;63016;55.030;38.710;2023-09-19T12:16:20;100284.16;;;22.48;61.90
74544;BME280;63016;55.030;38.710;2023-09-19T12:18:54;100290.13;;;22.55;61.78
74544;BME280;63016;55.030;38.710;2023-09-19T12:21:29;100282.25;;;22.61;61.58
74544;BME280;63016;55.030;38.710;2023-09-19T12:23:59;100273.56;;;22.65;61.46
74544;BME280;63016;55.030;38.710;2023-09-19T12:29:42;100274.47;;;22.71;61.50
74544;BME280;63016;55.030;38.710;2023-09-19T12:32:08;100270.75;;;22.72;60.75
74544;BME280;63016;55.030;38.710;2023-09-19T12:34:50;100272.72;;;22.76;61.08
74544;BME280;63016;55.030;38.710;2023-09-19T12:37:20;100271.91;;;22.76;60.81
74544;BME280;63016;55.030;38.710;2023-09-19T12:40:06;100260.94;;;22.72;61.23
74544;BME280;63016;55.030;38.710;2023-09-19T12:42:46;100264.19;;;22.74;61.13
74544;BME280;63016;55.030;38.710;2023-09-19T12:45:16;100268.22;;;22.77;61.32
74544;BME280;63016;55.030;38.710;2023-09-19T12:48:21;100261.38;;;22.81;61.50
74544;BME280;63016;55.030;38.710;2023-09-19T12:51:07;100250.16;;;22.79;61.33
74544;BME280;63016;55.030;38.710;2023-09-19T12:53:57;100254.06;;;22.88;61.40
74544;BME280;63016;55.030;38.710;2023-09-19T12:56:39;100248.28;;;22.91;61.17
74544;BME280;63016;55.030;38.710;2023-09-19T12:59:11;100238.22;;;22.93;61.03
74544;BME280;63016;55.030;38.710;2023-09-19T13:01:39;100240.19;;;22.98;61.00
74544;BME280;63016;55.030;38.710;2023-09-19T13:04:21;100236.00;;;23.02;61.02
74544;BME280;63016;55.030;38.710;2023-09-19T13:06:55;100231.47;;;23.02;60.93
74544;BME280;63016;55.030;38.710;2023-09-19T13:09:27;100225.34;;;23.02;60.78
74544;BME280;63016;55.030;38.710;2023-09-19T13:12:36;100234.53;;;23.11;61.44
74544;BME280;63016;55.030;38.710;2023-09-19T13:15:15;100216.66;;;23.06;61.02
74544;BME280;63016;55.030;38.710;2023-09-19T13:17:57;100221.22;;;23.11;60.43
74544;BME280;63016;55.030;38.710;2023-09-19T13:20:28;100236.25;;;23.17;60.36
74544;BME280;63016;55.030;38.710;2023-09-19T13:22:57;100221.09;;;23.18;60.62
74544;BME280;63016;55.030;38.710;2023-09-19T13:25:33;100220.38;;;23.22;60.00
74544;BME280;63016;55.030;38.710;2023-09-19T13:28:04;100209.06;;;23.15;60.19
74544;BME280;63016;55.030;38.710;2023-09-19T13:30:33;100227.31;;;23.23;60.37
74544;BME280;63016;55.030;38.710;2023-09-19T13:33:09;100187.13;;;23.08;60.62
74544;BME280;63016;55.030;38.710;2023-09-19T13:35:36;100190.13;;;23.12;60.42
74544;BME280;63016;55.030;38.710;2023-09-19T13:38:08;100209.00;;;23.27;60.41
74544;BME280;63016;55.030;38.710;2023-09-19T13:40:54;100201.25;;;23.25;60.46
74544;BME280;63016;55.030;38.710;2023-09-19T13:43:23;100205.03;;;23.29;60.16
74544;BME280;63016;55.030;38.710;2023-09-19T13:45:54;100198.56;;;23.25;60.85
74544;BME280;63016;55.030;38.710;2023-09-19T13:48:29;100197.63;;;23.31;60.62
74544;BME280;63016;55.030;38.710;2023-09-19T13:50:56;100205.19;;;23.40;60.76
74544;BME280;63016;55.030;38.710;2023-09-19T13:53:24;100165.91;;;23.13;61.14
74544;BME280;63016;55.030;38.710;2023-09-19T13:55:52;100202.78;;;23.38;60.97